Wilmington, North Carolina
Current Conditions -  °F | °C
As of 1:53 PM on Thursday 23 Oct 2014 (Local Time) from KILM Reporting Station
Clear Clear  
Wind Chill: 68°   Ceiling: Unl
Heat Index: 68°   Visibility: 10mi
Dew Point: 44°   Wind: 12mph
Humidity: 42%   Direction: 280°W
Pressure: 29.95"   Gusts: 21mph
Location:  34.24°N, 77.94°W
Report Text: KILM 231753Z 28010G18KT 10SM CLR 20/07 A2995 RMK AO2 SLP142 T02000067 10200 20089 58022
Loading
Personal Weather Stations






























Interactive Weather Map
Tropical Storm Tracking
New forecast layout! Learn more

10-Day Weather Forecast

Advertisements
Track Severe Weather on mobile